sensor_id;sensor_type;location;lat;lon;timestamp;pressure;altitude;pressure_sealevel;temperature;humidity
4392;BME280;2210;51.938;8.488;2022-09-16T00:00:04;99813.94;;;13.72;100.00
4392;BME280;2210;51.938;8.488;2022-09-16T00:04:05;99808.66;;;13.65;100.00
4392;BME280;2210;51.938;8.488;2022-09-16T00:08:05;99806.41;;;13.52;100.00
4392;BME280;2210;51.938;8.488;2022-09-16T00:12:06;99808.94;;;13.63;100.00
4392;BME280;2210;51.938;8.488;2022-09-16T00:16:11;99803.38;;;13.58;100.00
4392;BME280;2210;51.938;8.488;2022-09-16T00:20:12;99806.44;;;13.62;100.00
4392;BME280;2210;51.938;8.488;2022-09-16T00:24:12;99802.53;;;13.47;100.00
4392;BME280;2210;51.938;8.488;2022-09-16T00:28:14;99807.53;;;13.61;100.00
4392;BME280;2210;51.938;8.488;2022-09-16T00:32:15;99809.19;;;13.52;100.00
4392;BME280;2210;51.938;8.488;2022-09-16T00:36:17;99793.09;;;13.38;100.00
4392;BME280;2210;51.938;8.488;2022-09-16T00:40:18;99794.78;;;13.49;100.00
4392;BME280;2210;51.938;8.488;2022-09-16T00:48:50;99797.00;;;13.53;100.00
4392;BME280;2210;51.938;8.488;2022-09-16T00:52:51;99799.78;;;13.47;100.00
4392;BME280;2210;51.938;8.488;2022-09-16T00:56:54;99804.19;;;13.54;100.00
4392;BME280;2210;51.938;8.488;2022-09-16T01:00:56;99800.91;;;13.57;100.00
4392;BME280;2210;51.938;8.488;2022-09-16T01:05:13;99804.22;;;13.59;100.00
4392;BME280;2210;51.938;8.488;2022-09-16T01:09:15;99792.00;;;13.55;100.00
4392;BME280;2210;51.938;8.488;2022-09-16T01:13:17;99796.47;;;13.61;100.00
4392;BME280;2210;51.938;8.488;2022-09-16T01:17:27;99793.41;;;13.42;100.00
4392;BME280;2210;51.938;8.488;2022-09-16T01:30:13;99793.03;;;13.28;100.00
4392;BME280;2210;51.938;8.488;2022-09-16T01:39:08;99795.81;;;13.28;100.00
4392;BME280;2210;51.938;8.488;2022-09-16T01:43:22;99799.97;;;13.25;100.00
4392;BME280;2210;51.938;8.488;2022-09-16T01:47:34;99801.09;;;13.24;100.00
4392;BME280;2210;51.938;8.488;2022-09-16T02:00:13;99798.53;;;13.07;100.00
4392;BME280;2210;51.938;8.488;2022-09-16T02:04:18;99794.41;;;13.15;100.00
4392;BME280;2210;51.938;8.488;2022-09-16T02:08:25;99799.13;;;13.20;100.00
4392;BME280;2210;51.938;8.488;2022-09-16T02:12:30;99786.38;;;13.13;100.00
4392;BME280;2210;51.938;8.488;2022-09-16T02:20:35;99792.97;;;13.02;100.00
4392;BME280;2210;51.938;8.488;2022-09-16T02:24:37;99794.06;;;12.96;100.00
4392;BME280;2210;51.938;8.488;2022-09-16T02:28:40;99786.34;;;13.03;100.00
4392;BME280;2210;51.938;8.488;2022-09-16T02:32:45;99791.31;;;12.96;100.00
4392;BME280;2210;51.938;8.488;2022-09-16T02:36:49;99782.78;;;13.08;100.00
4392;BME280;2210;51.938;8.488;2022-09-16T02:40:55;99791.88;;;13.03;100.00
4392;BME280;2210;51.938;8.488;2022-09-16T02:44:56;99798.53;;;13.07;100.00
4392;BME280;2210;51.938;8.488;2022-09-16T02:49:04;99793.84;;;13.08;100.00
4392;BME280;2210;51.938;8.488;2022-09-16T02:53:15;99790.78;;;13.04;100.00
4392;BME280;2210;51.938;8.488;2022-09-16T02:57:21;99785.28;;;13.14;100.00
4392;BME280;2210;51.938;8.488;2022-09-16T03:01:22;99789.44;;;13.22;100.00
4392;BME280;2210;51.938;8.488;2022-09-16T03:05:30;99794.66;;;13.08;100.00
4392;BME280;2210;51.938;8.488;2022-09-16T03:09:30;99800.72;;;12.95;100.00
4392;BME280;2210;51.938;8.488;2022-09-16T03:13:43;99800.19;;;13.03;100.00
4392;BME280;2210;51.938;8.488;2022-09-16T03:22:31;99778.06;;;13.08;100.00
4392;BME280;2210;51.938;8.488;2022-09-16T03:26:56;99776.69;;;13.11;100.00
4392;BME280;2210;51.938;8.488;2022-09-16T03:31:09;99773.09;;;13.05;100.00
4392;BME280;2210;51.938;8.488;2022-09-16T03:35:22;99778.56;;;12.95;100.00
4392;BME280;2210;51.938;8.488;2022-09-16T03:39:25;99776.38;;;12.97;100.00
4392;BME280;2210;51.938;8.488;2022-09-16T03:43:26;99774.72;;;13.01;100.00
4392;BME280;2210;51.938;8.488;2022-09-16T03:47:26;99778.84;;;12.93;100.00
4392;BME280;2210;51.938;8.488;2022-09-16T03:51:26;99783.53;;;12.88;100.00
4392;BME280;2210;51.938;8.488;2022-09-16T03:55:27;99776.91;;;12.94;100.00
4392;BME280;2210;51.938;8.488;2022-09-16T03:59:27;99770.81;;;12.87;100.00
4392;BME280;2210;51.938;8.488;2022-09-16T04:03:28;99778.81;;;12.88;100.00
4392;BME280;2210;51.938;8.488;2022-09-16T04:07:31;99778.88;;;12.98;100.00
4392;BME280;2210;51.938;8.488;2022-09-16T04:11:32;99783.00;;;12.91;100.00
4392;BME280;2210;51.938;8.488;2022-09-16T04:15:35;99774.41;;;12.82;100.00
4392;BME280;2210;51.938;8.488;2022-09-16T04:19:36;99774.66;;;12.86;100.00
4392;BME280;2210;51.938;8.488;2022-09-16T04:23:36;99775.25;;;12.93;100.00
4392;BME280;2210;51.938;8.488;2022-09-16T04:27:36;99765.28;;;12.87;100.00
4392;BME280;2210;51.938;8.488;2022-09-16T04:31:37;99770.81;;;12.87;100.00
4392;BME280;2210;51.938;8.488;2022-09-16T04:35:37;99763.06;;;12.84;100.00
4392;BME280;2210;51.938;8.488;2022-09-16T04:39:37;99743.97;;;12.87;100.00
4392;BME280;2210;51.938;8.488;2022-09-16T04:43:37;99761.88;;;12.69;100.00
4392;BME280;2210;51.938;8.488;2022-09-16T04:47:38;99764.66;;;12.69;100.00
4392;BME280;2210;51.938;8.488;2022-09-16T04:51:38;99767.44;;;12.74;100.00
4392;BME280;2210;51.938;8.488;2022-09-16T04:55:38;99766.63;;;12.74;100.00
4392;BME280;2210;51.938;8.488;2022-09-16T04:59:39;99768.22;;;12.59;100.00
4392;BME280;2210;51.938;8.488;2022-09-16T05:03:44;99763.22;;;12.61;100.00
4392;BME280;2210;51.938;8.488;2022-09-16T05:07:44;99755.19;;;12.50;100.00
4392;BME280;2210;51.938;8.488;2022-09-16T05:11:45;99757.44;;;12.63;100.00
4392;BME280;2210;51.938;8.488;2022-09-16T05:15:45;99757.72;;;12.67;100.00
4392;BME280;2210;51.938;8.488;2022-09-16T05:19:45;99763.84;;;12.69;100.00
4392;BME280;2210;51.938;8.488;2022-09-16T05:23:47;99771.28;;;12.63;100.00
4392;BME280;2210;51.938;8.488;2022-09-16T05:27:47;99771.84;;;12.70;100.00
4392;BME280;2210;51.938;8.488;2022-09-16T05:31:48;99769.06;;;12.65;100.00
4392;BME280;2210;51.938;8.488;2022-09-16T05:35:48;99779.06;;;12.71;100.00
4392;BME280;2210;51.938;8.488;2022-09-16T05:39:48;99778.50;;;12.74;100.00
4392;BME280;2210;51.938;8.488;2022-09-16T05:43:49;99782.09;;;12.75;100.00
4392;BME280;2210;51.938;8.488;2022-09-16T05:47:50;99782.66;;;12.77;100.00
4392;BME280;2210;51.938;8.488;2022-09-16T05:51:50;99784.59;;;12.81;100.00
4392;BME280;2210;51.938;8.488;2022-09-16T05:56:03;99788.78;;;12.84;100.00
4392;BME280;2210;51.938;8.488;2022-09-16T06:00:04;99782.44;;;12.89;100.00
4392;BME280;2210;51.938;8.488;2022-09-16T06:04:07;99784.91;;;12.85;100.00
4392;BME280;2210;51.938;8.488;2022-09-16T06:08:08;99787.09;;;12.78;100.00
4392;BME280;2210;51.938;8.488;2022-09-16T06:12:09;99781.56;;;12.78;100.00
4392;BME280;2210;51.938;8.488;2022-09-16T06:16:09;99793.47;;;12.84;100.00
4392;BME280;2210;51.938;8.488;2022-09-16T06:20:10;99777.97;;;12.77;100.00
4392;BME280;2210;51.938;8.488;2022-09-16T06:24:15;99780.47;;;12.84;100.00
4392;BME280;2210;51.938;8.488;2022-09-16T06:28:15;99786.84;;;12.79;100.00
4392;BME280;2210;51.938;8.488;2022-09-16T06:32:15;99791.84;;;12.88;100.00
4392;BME280;2210;51.938;8.488;2022-09-16T06:36:18;99795.16;;;12.85;100.00
4392;BME280;2210;51.938;8.488;2022-09-16T06:40:19;99788.53;;;12.96;100.00
4392;BME280;2210;51.938;8.488;2022-09-16T06:44:19;99791.88;;;13.03;100.00
4392;BME280;2210;51.938;8.488;2022-09-16T06:48:20;99783.50;;;12.77;100.00
4392;BME280;2210;51.938;8.488;2022-09-16T06:52:20;99777.75;;;12.94;100.00
4392;BME280;2210;51.938;8.488;2022-09-16T06:56:21;99773.81;;;12.80;100.00
4392;BME280;2210;51.938;8.488;2022-09-16T07:00:21;99769.47;;;12.99;100.00
4392;BME280;2210;51.938;8.488;2022-09-16T07:04:21;99769.78;;;13.24;100.00
4392;BME280;2210;51.938;8.488;2022-09-16T07:08:22;99773.72;;;13.38;100.00
4392;BME280;2210;51.938;8.488;2022-09-16T07:12:22;99771.50;;;13.45;100.00
4392;BME280;2210;51.938;8.488;2022-09-16T07:16:24;99788.88;;;13.15;100.00
4392;BME280;2210;51.938;8.488;2022-09-16T07:20:25;99781.38;;;13.05;100.00
4392;BME280;2210;51.938;8.488;2022-09-16T07:24:25;99785.09;;;13.37;100.00
4392;BME280;2210;51.938;8.488;2022-09-16T07:28:25;99788.66;;;13.37;100.00
4392;BME280;2210;51.938;8.488;2022-09-16T07:32:25;99785.03;;;13.31;100.00
4392;BME280;2210;51.938;8.488;2022-09-16T07:36:28;99784.25;;;13.67;100.00
4392;BME280;2210;51.938;8.488;2022-09-16T07:40:28;99784.28;;;13.88;100.00
4392;BME280;2210;51.938;8.488;2022-09-16T07:44:29;99797.84;;;13.74;100.00
4392;BME280;2210;51.938;8.488;2022-09-16T07:48:30;99790.34;;;14.10;100.00
4392;BME280;2210;51.938;8.488;2022-09-16T07:52:30;99797.00;;;14.14;100.00
4392;BME280;2210;51.938;8.488;2022-09-16T07:56:33;99800.88;;;13.98;99.27
4392;BME280;2210;51.938;8.488;2022-09-16T08:00:34;99813.06;;;13.71;99.83
4392;BME280;2210;51.938;8.488;2022-09-16T08:04:34;99809.22;;;13.77;100.00
4392;BME280;2210;51.938;8.488;2022-09-16T08:08:37;99815.84;;;13.97;100.00
4392;BME280;2210;51.938;8.488;2022-09-16T08:12:37;99800.91;;;14.03;99.30
4392;BME280;2210;51.938;8.488;2022-09-16T08:16:38;99799.50;;;13.95;99.16
4392;BME280;2210;51.938;8.488;2022-09-16T08:20:38;99802.53;;;14.20;97.86
4392;BME280;2210;51.938;8.488;2022-09-16T08:24:38;99795.84;;;14.36;95.17
4392;BME280;2210;51.938;8.488;2022-09-16T08:28:43;99800.25;;;14.63;95.81
4392;BME280;2210;51.938;8.488;2022-09-16T08:32:43;99796.91;;;14.66;92.84
4392;BME280;2210;51.938;8.488;2022-09-16T08:36:44;99796.94;;;14.35;92.08
4392;BME280;2210;51.938;8.488;2022-09-16T08:40:44;99801.38;;;14.46;91.92
4392;BME280;2210;51.938;8.488;2022-09-16T08:44:56;99802.19;;;14.57;92.45
4392;BME280;2210;51.938;8.488;2022-09-16T08:49:16;99803.00;;;14.73;90.55
4392;BME280;2210;51.938;8.488;2022-09-16T08:54:05;99802.97;;;14.78;86.45
4392;BME280;2210;51.938;8.488;2022-09-16T08:58:23;99795.78;;;14.62;84.99
4392;BME280;2210;51.938;8.488;2022-09-16T09:02:39;99799.13;;;14.69;84.31
4392;BME280;2210;51.938;8.488;2022-09-16T09:07:35;99801.25;;;14.88;84.27
4392;BME280;2210;51.938;8.488;2022-09-16T09:11:50;99800.94;;;14.94;84.29
4392;BME280;2210;51.938;8.488;2022-09-16T09:20:06;99802.28;;;15.07;82.55
4392;BME280;2210;51.938;8.488;2022-09-16T09:28:37;99803.31;;;15.22;78.04
4392;BME280;2210;51.938;8.488;2022-09-16T09:33:03;99795.72;;;14.82;72.64
4392;BME280;2210;51.938;8.488;2022-09-16T09:37:43;99793.25;;;14.76;74.75
4392;BME280;2210;51.938;8.488;2022-09-16T09:41:56;99794.38;;;14.80;75.02
4392;BME280;2210;51.938;8.488;2022-09-16T09:46:05;99796.97;;;15.16;70.67
4392;BME280;2210;51.938;8.488;2022-09-16T09:50:14;99780.22;;;15.71;65.59
4392;BME280;2210;51.938;8.488;2022-09-16T09:54:32;99778.38;;;15.56;61.29
4392;BME280;2210;51.938;8.488;2022-09-16T10:03:04;99772.53;;;15.58;64.30
4392;BME280;2210;51.938;8.488;2022-09-16T10:07:06;99762.91;;;15.79;62.96
4392;BME280;2210;51.938;8.488;2022-09-16T10:11:16;99760.84;;;15.61;62.96
4392;BME280;2210;51.938;8.488;2022-09-16T10:19:24;99769.59;;;15.44;64.53
4392;BME280;2210;51.938;8.488;2022-09-16T10:23:26;99770.06;;;15.51;63.02
4392;BME280;2210;51.938;8.488;2022-09-16T10:31:36;99755.38;;;15.85;61.17
4392;BME280;2210;51.938;8.488;2022-09-16T10:35:38;99749.81;;;15.85;61.22
4392;BME280;2210;51.938;8.488;2022-09-16T10:39:55;99753.78;;;16.08;61.30
4392;BME280;2210;51.938;8.488;2022-09-16T10:43:59;99745.56;;;16.22;61.33
4392;BME280;2210;51.938;8.488;2022-09-16T10:48:04;99747.13;;;16.04;59.29
4392;BME280;2210;51.938;8.488;2022-09-16T10:52:28;99746.66;;;15.97;57.50
4392;BME280;2210;51.938;8.488;2022-09-16T10:56:32;99738.81;;;16.04;57.73
4392;BME280;2210;51.938;8.488;2022-09-16T11:18:47;99723.53;;;16.74;55.58
4392;BME280;2210;51.938;8.488;2022-09-16T11:40:57;99716.03;;;17.32;56.11
4392;BME280;2210;51.938;8.488;2022-09-16T11:45:19;99723.13;;;17.43;54.51
4392;BME280;2210;51.938;8.488;2022-09-16T11:53:47;99715.00;;;17.28;55.40
4392;BME280;2210;51.938;8.488;2022-09-16T11:57:58;99721.94;;;17.11;53.99
4392;BME280;2210;51.938;8.488;2022-09-16T12:06:26;99701.22;;;17.36;53.62
4392;BME280;2210;51.938;8.488;2022-09-16T12:10:46;99699.59;;;17.49;54.13
4392;BME280;2210;51.938;8.488;2022-09-16T12:15:01;99721.41;;;17.28;54.21
4392;BME280;2210;51.938;8.488;2022-09-16T12:19:10;99764.09;;;15.33;74.03
4392;BME280;2210;51.938;8.488;2022-09-16T12:23:23;99778.16;;;14.01;93.30
4392;BME280;2210;51.938;8.488;2022-09-16T12:35:57;99796.09;;;13.21;100.00
4392;BME280;2210;51.938;8.488;2022-09-16T12:39:59;99787.59;;;13.59;100.00
4392;BME280;2210;51.938;8.488;2022-09-16T12:44:43;99777.63;;;13.63;100.00
4392;BME280;2210;51.938;8.488;2022-09-16T12:49:24;99762.97;;;13.68;100.00
4392;BME280;2210;51.938;8.488;2022-09-16T13:01:56;99733.81;;;14.11;100.00
4392;BME280;2210;51.938;8.488;2022-09-16T13:06:00;99729.34;;;14.26;100.00
4392;BME280;2210;51.938;8.488;2022-09-16T13:10:07;99720.97;;;14.31;98.09
4392;BME280;2210;51.938;8.488;2022-09-16T13:14:21;99721.44;;;14.59;94.78
4392;BME280;2210;51.938;8.488;2022-09-16T13:18:25;99721.38;;;14.79;97.60
4392;BME280;2210;51.938;8.488;2022-09-16T13:22:42;99697.59;;;15.13;92.93
4392;BME280;2210;51.938;8.488;2022-09-16T13:26:44;99696.09;;;15.26;83.58
4392;BME280;2210;51.938;8.488;2022-09-16T13:30:44;99701.31;;;15.32;85.05
4392;BME280;2210;51.938;8.488;2022-09-16T13:34:45;99698.09;;;15.55;83.67
4392;BME280;2210;51.938;8.488;2022-09-16T13:38:53;99699.06;;;15.69;82.06
4392;BME280;2210;51.938;8.488;2022-09-16T13:51:16;99697.19;;;15.94;75.94
4392;BME280;2210;51.938;8.488;2022-09-16T13:55:20;99708.44;;;15.83;72.41
4392;BME280;2210;51.938;8.488;2022-09-16T13:59:33;99694.81;;;15.82;70.41
4392;BME280;2210;51.938;8.488;2022-09-16T14:08:09;99684.22;;;16.13;66.64
4392;BME280;2210;51.938;8.488;2022-09-16T14:12:23;99680.47;;;15.99;61.71
4392;BME280;2210;51.938;8.488;2022-09-16T14:16:34;99673.75;;;15.71;60.46
4392;BME280;2210;51.938;8.488;2022-09-16T14:21:04;99675.28;;;15.58;63.73
4392;BME280;2210;51.938;8.488;2022-09-16T14:29:30;99668.91;;;15.87;68.22
4392;BME280;2210;51.938;8.488;2022-09-16T14:33:34;99665.44;;;16.00;64.07
4392;BME280;2210;51.938;8.488;2022-09-16T14:37:57;99670.25;;;15.94;66.79
4392;BME280;2210;51.938;8.488;2022-09-16T14:42:05;99672.25;;;15.89;62.38
4392;BME280;2210;51.938;8.488;2022-09-16T14:46:06;99673.31;;;15.93;61.37
4392;BME280;2210;51.938;8.488;2022-09-16T14:50:36;99663.69;;;16.09;63.11
4392;BME280;2210;51.938;8.488;2022-09-16T14:54:42;99658.22;;;15.99;61.97
4392;BME280;2210;51.938;8.488;2022-09-16T14:58:43;99670.41;;;16.03;63.72
4392;BME280;2210;51.938;8.488;2022-09-16T15:03:19;99698.03;;;15.94;63.58
4392;BME280;2210;51.938;8.488;2022-09-16T15:07:25;99752.28;;;14.47;81.93
4392;BME280;2210;51.938;8.488;2022-09-16T15:11:45;99742.94;;;13.35;85.55
4392;BME280;2210;51.938;8.488;2022-09-16T15:15:49;99742.66;;;13.10;91.26
4392;BME280;2210;51.938;8.488;2022-09-16T15:19:57;99739.97;;;13.36;98.05
4392;BME280;2210;51.938;8.488;2022-09-16T15:24:00;99728.91;;;13.62;99.36
4392;BME280;2210;51.938;8.488;2022-09-16T15:28:17;99718.63;;;13.68;100.00
4392;BME280;2210;51.938;8.488;2022-09-16T15:32:26;99704.50;;;13.54;100.00
4392;BME280;2210;51.938;8.488;2022-09-16T15:36:39;99705.34;;;13.59;95.58
4392;BME280;2210;51.938;8.488;2022-09-16T15:40:39;99719.72;;;13.97;98.14
4392;BME280;2210;51.938;8.488;2022-09-16T15:44:48;99712.81;;;13.74;97.74
4392;BME280;2210;51.938;8.488;2022-09-16T15:48:54;99710.56;;;13.81;99.87
4392;BME280;2210;51.938;8.488;2022-09-16T15:57:35;99705.03;;;13.76;98.01
4392;BME280;2210;51.938;8.488;2022-09-16T16:01:45;99706.47;;;13.63;99.22
4392;BME280;2210;51.938;8.488;2022-09-16T16:05:52;99702.00;;;13.68;91.49
4392;BME280;2210;51.938;8.488;2022-09-16T16:09:52;99702.56;;;13.85;90.61
4392;BME280;2210;51.938;8.488;2022-09-16T16:13:53;99690.63;;;13.95;94.84
4392;BME280;2210;51.938;8.488;2022-09-16T16:18:13;99691.72;;;13.83;94.01
4392;BME280;2210;51.938;8.488;2022-09-16T16:22:13;99679.81;;;13.78;90.00
4392;BME280;2210;51.938;8.488;2022-09-16T16:26:14;99688.97;;;13.78;93.68
4392;BME280;2210;51.938;8.488;2022-09-16T16:30:15;99680.63;;;13.89;97.60
4392;BME280;2210;51.938;8.488;2022-09-16T16:34:15;99690.34;;;13.86;94.79
4392;BME280;2210;51.938;8.488;2022-09-16T16:38:15;99692.00;;;13.92;95.29
4392;BME280;2210;51.938;8.488;2022-09-16T16:42:16;99693.38;;;13.90;96.49
4392;BME280;2210;51.938;8.488;2022-09-16T16:46:18;99688.94;;;13.94;94.66
4392;BME280;2210;51.938;8.488;2022-09-16T16:50:18;99682.31;;;13.79;93.00
4392;BME280;2210;51.938;8.488;2022-09-16T16:54:18;99678.44;;;13.80;90.88
4392;BME280;2210;51.938;8.488;2022-09-16T16:58:18;99677.03;;;13.88;89.24
4392;BME280;2210;51.938;8.488;2022-09-16T17:02:19;99682.28;;;13.95;90.58
4392;BME280;2210;51.938;8.488;2022-09-16T17:06:19;99678.97;;;13.98;90.24
4392;BME280;2210;51.938;8.488;2022-09-16T17:10:19;99696.69;;;13.97;90.99
4392;BME280;2210;51.938;8.488;2022-09-16T17:14:21;99704.47;;;13.90;89.24
4392;BME280;2210;51.938;8.488;2022-09-16T17:18:22;99708.06;;;13.95;83.11
4392;BME280;2210;51.938;8.488;2022-09-16T17:22:22;99717.75;;;13.98;83.01
4392;BME280;2210;51.938;8.488;2022-09-16T17:26:23;99720.53;;;13.93;80.03
4392;BME280;2210;51.938;8.488;2022-09-16T17:30:23;99714.16;;;13.92;77.88
4392;BME280;2210;51.938;8.488;2022-09-16T17:34:23;99719.97;;;14.01;78.05
4392;BME280;2210;51.938;8.488;2022-09-16T17:38:25;99730.22;;;13.95;79.16
4392;BME280;2210;51.938;8.488;2022-09-16T17:42:25;99729.94;;;13.97;77.42
4392;BME280;2210;51.938;8.488;2022-09-16T17:46:25;99720.00;;;13.91;79.48
4392;BME280;2210;51.938;8.488;2022-09-16T17:50:26;99720.00;;;13.96;79.52
4392;BME280;2210;51.938;8.488;2022-09-16T17:54:26;99727.75;;;13.94;82.28
4392;BME280;2210;51.938;8.488;2022-09-16T17:58:27;99722.19;;;13.99;83.89
4392;BME280;2210;51.938;8.488;2022-09-16T18:02:27;99719.44;;;13.83;81.88
4392;BME280;2210;51.938;8.488;2022-09-16T18:06:34;99720.00;;;13.96;86.08
4392;BME280;2210;51.938;8.488;2022-09-16T18:10:38;99719.44;;;13.89;86.86
4392;BME280;2210;51.938;8.488;2022-09-16T18:14:38;99726.06;;;13.98;87.91
4392;BME280;2210;51.938;8.488;2022-09-16T18:18:40;99717.22;;;13.91;82.28
4392;BME280;2210;51.938;8.488;2022-09-16T18:22:40;99720.25;;;13.99;84.98
4392;BME280;2210;51.938;8.488;2022-09-16T18:26:41;99721.38;;;13.93;84.20
4392;BME280;2210;51.938;8.488;2022-09-16T18:30:41;99724.97;;;13.94;84.12
4392;BME280;2210;51.938;8.488;2022-09-16T18:34:43;99739.69;;;13.84;83.03
4392;BME280;2210;51.938;8.488;2022-09-16T18:38:43;99733.56;;;13.87;81.32
4392;BME280;2210;51.938;8.488;2022-09-16T18:42:43;99737.72;;;13.79;79.10
4392;BME280;2210;51.938;8.488;2022-09-16T18:46:44;99747.16;;;13.78;78.42
4392;BME280;2210;51.938;8.488;2022-09-16T18:50:44;99741.91;;;13.77;79.08
4392;BME280;2210;51.938;8.488;2022-09-16T18:54:45;99751.31;;;13.60;80.16
4392;BME280;2210;51.938;8.488;2022-09-16T18:58:46;99747.72;;;13.65;81.79
4392;BME280;2210;51.938;8.488;2022-09-16T19:02:48;99743.56;;;13.73;81.36
4392;BME280;2210;51.938;8.488;2022-09-16T19:06:51;99734.41;;;13.67;81.22
4392;BME280;2210;51.938;8.488;2022-09-16T19:10:52;99737.72;;;13.54;80.21
4392;BME280;2210;51.938;8.488;2022-09-16T19:14:52;99745.50;;;13.57;80.79
4392;BME280;2210;51.938;8.488;2022-09-16T19:18:55;99751.03;;;13.57;81.66
4392;BME280;2210;51.938;8.488;2022-09-16T19:22:55;99755.16;;;13.39;81.93
4392;BME280;2210;51.938;8.488;2022-09-16T19:26:55;99755.44;;;13.42;83.12
4392;BME280;2210;51.938;8.488;2022-09-16T19:31:08;99755.09;;;13.18;85.40
4392;BME280;2210;51.938;8.488;2022-09-16T19:35:08;99763.13;;;13.20;88.32
4392;BME280;2210;51.938;8.488;2022-09-16T19:39:10;99770.91;;;13.28;90.61
4392;BME280;2210;51.938;8.488;2022-09-16T19:43:11;99778.56;;;12.90;95.75
4392;BME280;2210;51.938;8.488;2022-09-16T19:47:11;99776.38;;;12.97;98.81
4392;BME280;2210;51.938;8.488;2022-09-16T19:51:14;99779.88;;;12.72;100.00
4392;BME280;2210;51.938;8.488;2022-09-16T19:55:15;99792.38;;;12.90;100.00
4392;BME280;2210;51.938;8.488;2022-09-16T19:59:15;99790.13;;;12.76;100.00
4392;BME280;2210;51.938;8.488;2022-09-16T20:03:16;99782.00;;;12.54;100.00
4392;BME280;2210;51.938;8.488;2022-09-16T20:07:16;99794.94;;;12.43;100.00
4392;BME280;2210;51.938;8.488;2022-09-16T20:11:21;99785.13;;;12.20;100.00
4392;BME280;2210;51.938;8.488;2022-09-16T20:15:21;99791.25;;;12.27;100.00
4392;BME280;2210;51.938;8.488;2022-09-16T20:19:21;99799.19;;;12.13;100.00
4392;BME280;2210;51.938;8.488;2022-09-16T20:23:22;99806.97;;;12.22;100.00
4392;BME280;2210;51.938;8.488;2022-09-16T20:27:22;99808.38;;;12.24;100.00
4392;BME280;2210;51.938;8.488;2022-09-16T20:31:30;99812.63;;;12.42;100.00
4392;BME280;2210;51.938;8.488;2022-09-16T20:35:31;99812.63;;;12.42;100.00
4392;BME280;2210;51.938;8.488;2022-09-16T20:39:32;99810.59;;;12.22;100.00
4392;BME280;2210;51.938;8.488;2022-09-16T20:43:33;99818.53;;;12.13;100.00
4392;BME280;2210;51.938;8.488;2022-09-16T20:47:33;99813.16;;;11.96;100.00
4392;BME280;2210;51.938;8.488;2022-09-16T20:51:34;99818.25;;;11.82;100.00
4392;BME280;2210;51.938;8.488;2022-09-16T20:55:35;99815.81;;;11.86;100.00
4392;BME280;2210;51.938;8.488;2022-09-16T20:59:35;99821.38;;;11.91;100.00
4392;BME280;2210;51.938;8.488;2022-09-16T21:03:35;99829.81;;;11.79;100.00
4392;BME280;2210;51.938;8.488;2022-09-16T21:07:36;99815.53;;;11.88;100.00
4392;BME280;2210;51.938;8.488;2022-09-16T21:11:36;99830.34;;;12.04;100.00
4392;BME280;2210;51.938;8.488;2022-09-16T21:15:39;99826.81;;;12.13;100.00
4392;BME280;2210;51.938;8.488;2022-09-16T21:19:40;99821.06;;;12.20;100.00
4392;BME280;2210;51.938;8.488;2022-09-16T21:23:40;99830.03;;;12.00;100.00
4392;BME280;2210;51.938;8.488;2022-09-16T21:27:40;99830.44;;;12.14;100.00
4392;BME280;2210;51.938;8.488;2022-09-16T21:31:41;99836.81;;;12.20;100.00
4392;BME280;2210;51.938;8.488;2022-09-16T21:35:49;99840.34;;;11.82;100.00
4392;BME280;2210;51.938;8.488;2022-09-16T21:39:49;99851.59;;;11.76;100.00
4392;BME280;2210;51.938;8.488;2022-09-16T21:43:54;99834.00;;;11.82;100.00
4392;BME280;2210;51.938;8.488;2022-09-16T21:47:55;99829.38;;;11.93;100.00
4392;BME280;2210;51.938;8.488;2022-09-16T21:51:57;99833.88;;;11.99;100.00
4392;BME280;2210;51.938;8.488;2022-09-16T21:56:02;99833.91;;;12.04;100.00
4392;BME280;2210;51.938;8.488;2022-09-16T22:00:03;99841.16;;;12.10;100.00
4392;BME280;2210;51.938;8.488;2022-09-16T22:04:08;99840.63;;;12.13;100.00
4392;BME280;2210;51.938;8.488;2022-09-16T22:08:09;99850.31;;;12.16;100.00
4392;BME280;2210;51.938;8.488;2022-09-16T22:12:09;99850.00;;;12.12;100.00
4392;BME280;2210;51.938;8.488;2022-09-16T22:16:13;99853.78;;;12.01;100.00
4392;BME280;2210;51.938;8.488;2022-09-16T22:20:13;99853.13;;;11.89;100.00
4392;BME280;2210;51.938;8.488;2022-09-16T22:24:14;99842.56;;;11.80;100.00
4392;BME280;2210;51.938;8.488;2022-09-16T22:28:16;99845.03;;;11.82;100.00
4392;BME280;2210;51.938;8.488;2022-09-16T22:32:16;99832.09;;;11.88;100.00
4392;BME280;2210;51.938;8.488;2022-09-16T22:36:19;99824.97;;;11.92;100.00
4392;BME280;2210;51.938;8.488;2022-09-16T22:40:20;99823.25;;;11.86;100.00
4392;BME280;2210;51.938;8.488;2022-09-16T22:44:20;99820.28;;;11.92;100.00
4392;BME280;2210;51.938;8.488;2022-09-16T22:48:20;99821.28;;;11.81;100.00
4392;BME280;2210;51.938;8.488;2022-09-16T22:52:21;99828.78;;;11.86;100.00
4392;BME280;2210;51.938;8.488;2022-09-16T22:56:27;99827.13;;;11.85;100.00
4392;BME280;2210;51.938;8.488;2022-09-16T23:00:30;99821.84;;;11.51;100.00
4392;BME280;2210;51.938;8.488;2022-09-16T23:04:30;99828.44;;;11.50;100.00
4392;BME280;2210;51.938;8.488;2022-09-16T23:08:33;99824.00;;;11.48;100.00
4392;BME280;2210;51.938;8.488;2022-09-16T23:12:34;99828.78;;;11.58;100.00
4392;BME280;2210;51.938;8.488;2022-09-16T23:16:35;99837.97;;;11.64;100.00
4392;BME280;2210;51.938;8.488;2022-09-16T23:20:37;99836.53;;;11.56;100.00
4392;BME280;2210;51.938;8.488;2022-09-16T23:24:37;99847.44;;;11.46;100.00
4392;BME280;2210;51.938;8.488;2022-09-16T23:28:38;99845.06;;;11.55;100.00
4392;BME280;2210;51.938;8.488;2022-09-16T23:32:38;99840.06;;;11.52;100.00
4392;BME280;2210;51.938;8.488;2022-09-16T23:36:38;99845.88;;;11.55;100.00
4392;BME280;2210;51.938;8.488;2022-09-16T23:40:38;99837.97;;;11.64;100.00
4392;BME280;2210;51.938;8.488;2022-09-16T23:44:39;99842.38;;;11.65;100.00
4392;BME280;2210;51.938;8.488;2022-09-16T23:48:40;99851.19;;;11.62;100.00
4392;BME280;2210;51.938;8.488;2022-09-16T23:52:42;99858.28;;;11.53;100.00
4392;BME280;2210;51.938;8.488;2022-09-16T23:56:42;99851.63;;;11.48;100.00
